createdAt,value
2023-03-06T00:01:02.924Z,99541.91
2023-03-06T00:03:30.450Z,99543.04
2023-03-06T00:05:58.439Z,99542.50
2023-03-06T00:08:28.260Z,99542.30
2023-03-06T00:10:57.531Z,99537.61
2023-03-06T00:13:26.615Z,99535.11
2023-03-06T00:15:55.156Z,99529.89
2023-03-06T00:18:23.449Z,99528.00
2023-03-06T00:20:51.265Z,99525.41
2023-03-06T00:23:20.543Z,99527.91
2023-03-06T00:25:48.601Z,99527.23
2023-03-06T00:28:18.069Z,99529.16
2023-03-06T00:30:47.956Z,99522.67
2023-03-06T00:33:16.205Z,99524.27
2023-03-06T00:35:44.916Z,99519.41
2023-03-06T00:38:14.580Z,99519.19
2023-03-06T00:40:42.289Z,99517.52
2023-03-06T00:43:11.952Z,99510.84
2023-03-06T00:45:39.440Z,99509.77
2023-03-06T00:48:11.013Z,99504.36
2023-03-06T00:50:41.106Z,99502.06
2023-03-06T00:53:11.579Z,99499.39
2023-03-06T00:55:40.747Z,99498.14
2023-03-06T00:58:07.991Z,99492.31
2023-03-06T01:00:35.773Z,99490.58
2023-03-06T01:03:03.501Z,99487.77
2023-03-06T01:05:37.239Z,99483.98
2023-03-06T01:08:08.486Z,99484.96
2023-03-06T01:10:40.746Z,99480.23
2023-03-06T01:13:09.895Z,99478.61
2023-03-06T01:15:40.199Z,99475.38
2023-03-06T01:18:09.063Z,99476.44
2023-03-06T01:20:37.647Z,99475.35
2023-03-06T01:23:05.942Z,99471.99
2023-03-06T01:25:33.644Z,99469.03
2023-03-06T01:28:01.864Z,99465.85
2023-03-06T01:30:29.680Z,99465.40
2023-03-06T01:32:59.026Z,99462.42
2023-03-06T01:35:26.452Z,99459.59
2023-03-06T01:37:54.526Z,99456.49
2023-03-06T01:40:21.852Z,99453.48
2023-03-06T01:42:52.219Z,99455.06
2023-03-06T01:45:23.310Z,99454.61
2023-03-06T01:47:53.272Z,99450.50
2023-03-06T01:50:23.110Z,99450.52
2023-03-06T01:52:58.211Z,99447.94
2023-03-06T01:55:33.464Z,99445.75
2023-03-06T01:58:07.811Z,99444.16
2023-03-06T02:00:36.488Z,99440.90
2023-03-06T02:03:15.410Z,99437.16
2023-03-06T02:05:46.115Z,99431.34
2023-03-06T02:08:19.549Z,99426.02
2023-03-06T02:11:15.351Z,99421.23
2023-03-06T02:13:44.534Z,99416.16
2023-03-06T02:16:13.747Z,99410.05
2023-03-06T02:18:43.869Z,99411.27
2023-03-06T02:21:20.630Z,99410.27
2023-03-06T02:23:56.407Z,99412.67
2023-03-06T02:26:27.083Z,99401.23
2023-03-06T02:28:57.423Z,99398.86
2023-03-06T02:31:32.045Z,99396.15
2023-03-06T02:34:16.927Z,99387.66
2023-03-06T02:36:51.865Z,99390.63
2023-03-06T02:39:24.464Z,99393.84
2023-03-06T02:41:52.402Z,99394.10
2023-03-06T02:44:23.272Z,99394.98
2023-03-06T02:46:51.632Z,99392.46
2023-03-06T02:49:20.787Z,99385.52
2023-03-06T02:51:49.489Z,99379.58
2023-03-06T02:54:19.963Z,99380.38
2023-03-06T02:56:47.492Z,99383.77
2023-03-06T02:59:16.959Z,99386.42
2023-03-06T03:01:47.984Z,99385.36
2023-03-06T03:04:16.469Z,99387.14
2023-03-06T03:06:47.478Z,99389.75
2023-03-06T03:09:17.066Z,99387.27
2023-03-06T03:11:46.067Z,99379.05
2023-03-06T03:14:16.546Z,99372.72
2023-03-06T03:16:46.406Z,99368.61
2023-03-06T03:19:15.229Z,99369.39
2023-03-06T03:21:50.439Z,99368.39
2023-03-06T03:24:27.589Z,99365.80
2023-03-06T03:27:00.501Z,99363.01
2023-03-06T03:29:38.872Z,99365.17
2023-03-06T03:32:09.175Z,99364.03
2023-03-06T03:34:41.687Z,99355.77
2023-03-06T03:37:10.678Z,99358.86
2023-03-06T03:39:45.656Z,99352.16
2023-03-06T03:42:24.089Z,99352.42
2023-03-06T03:45:15.256Z,99349.77
2023-03-06T03:47:48.766Z,99344.46
2023-03-06T03:50:37.447Z,99342.63
2023-03-06T03:53:27.794Z,99342.17
2023-03-06T03:56:01.627Z,99340.20
2023-03-06T03:59:05.295Z,99338.02
2023-03-06T04:01:46.660Z,99335.05
2023-03-06T04:04:31.834Z,99333.32
2023-03-06T04:07:23.635Z,99325.26
2023-03-06T04:10:34.485Z,99323.81
2023-03-06T04:14:03.747Z,99318.88
2023-03-06T04:17:00.389Z,99318.74
2023-03-06T04:19:40.140Z,99312.69
2023-03-06T04:22:20.321Z,99310.91
2023-03-06T04:25:27.938Z,99305.09
2023-03-06T04:29:11.049Z,99302.38
2023-03-06T04:32:10.630Z,99304.98
2023-03-06T04:35:41.648Z,99301.02
2023-03-06T04:39:00.042Z,99290.27
2023-03-06T04:42:10.128Z,99288.48
2023-03-06T04:45:31.074Z,99284.15
2023-03-06T04:48:23.562Z,99277.14
2023-03-06T04:51:47.606Z,99276.23
2023-03-06T04:55:12.093Z,99269.68
2023-03-06T04:58:22.532Z,99267.00
2023-03-06T05:01:51.177Z,99267.33
2023-03-06T05:05:31.993Z,99259.45
2023-03-06T05:08:49.604Z,99259.10
2023-03-06T05:12:04.685Z,99255.60
2023-03-06T05:15:38.045Z,99247.21
2023-03-06T05:19:13.122Z,99245.02
2023-03-06T05:23:01.878Z,99240.35
2023-03-06T05:27:15.804Z,99244.02
2023-03-06T05:31:32.127Z,99237.03
2023-03-06T05:35:56.750Z,99241.77
2023-03-06T05:40:08.310Z,99237.46
2023-03-06T05:44:00.582Z,99233.42
2023-03-06T05:52:35.398Z,99226.61
2023-03-06T06:01:12.115Z,99221.33
2023-03-06T06:05:26.332Z,99220.38
2023-03-06T06:09:23.228Z,99217.45
2023-03-06T06:12:49.352Z,99216.31
2023-03-06T06:15:44.186Z,99215.45
2023-03-06T06:19:34.271Z,99215.35
2023-03-06T06:22:38.874Z,99212.04
2023-03-06T06:34:29.230Z,99202.63
2023-03-06T06:38:09.327Z,99205.86
2023-03-06T06:42:28.003Z,99216.92
2023-03-06T07:03:04.781Z,99194.29
2023-03-06T08:01:56.362Z,99196.14
2023-03-06T08:06:11.674Z,99195.02
2023-03-06T08:10:32.037Z,99195.97
2023-03-06T08:30:16.167Z,99188.74
2023-03-06T08:34:50.125Z,99186.92
2023-03-06T08:39:23.953Z,99190.33
2023-03-06T08:43:16.509Z,99191.84
2023-03-06T08:47:22.838Z,99197.04
2023-03-06T09:13:45.289Z,99202.31
2023-03-06T09:17:57.349Z,99202.61
2023-03-06T09:41:28.460Z,99216.70
2023-03-06T09:49:59.892Z,99217.64
2023-03-06T09:54:35.477Z,99216.15
2023-03-06T09:58:48.790Z,99220.91
2023-03-06T10:02:43.578Z,99215.65
2023-03-06T10:06:35.371Z,99211.23
2023-03-06T10:10:25.510Z,99213.06
2023-03-06T10:14:09.731Z,99212.41
2023-03-06T10:18:25.559Z,99214.45
2023-03-06T10:22:35.324Z,99211.10
2023-03-06T10:34:25.518Z,99205.91
2023-03-06T10:38:10.919Z,99206.92
2023-03-06T10:45:58.155Z,99204.34
2023-03-06T10:49:46.079Z,99207.44
2023-03-06T10:52:36.791Z,99208.43
2023-03-06T10:55:42.754Z,99208.80
2023-03-06T10:58:41.416Z,99211.48
2023-03-06T11:01:27.620Z,99208.14
2023-03-06T11:05:00.807Z,99209.11
2023-03-06T11:08:36.160Z,99203.55
2023-03-06T11:16:54.228Z,99206.16
2023-03-06T11:28:32.301Z,99193.88
2023-03-06T11:31:31.943Z,99195.83
2023-03-06T11:34:40.691Z,99192.77
2023-03-06T11:37:16.300Z,99193.83
2023-03-06T11:40:32.348Z,99192.66
2023-03-06T11:43:17.701Z,99188.98
2023-03-06T11:45:57.773Z,99192.48
2023-03-06T11:49:15.763Z,99189.40
2023-03-06T11:51:54.154Z,99188.48
2023-03-06T11:54:23.747Z,99190.04
2023-03-06T11:57:39.348Z,99188.81
2023-03-06T12:01:19.011Z,99191.00
2023-03-06T12:05:19.824Z,99193.85
2023-03-06T12:09:34.679Z,99194.02
2023-03-06T12:12:39.916Z,99194.42
2023-03-06T12:16:45.009Z,99196.95
2023-03-06T12:20:09.798Z,99190.69
2023-03-06T12:24:33.243Z,99192.73
2023-03-06T12:28:13.677Z,99194.00
2023-03-06T12:31:56.028Z,99192.98
2023-03-06T12:35:55.877Z,99195.52
2023-03-06T12:39:46.577Z,99194.15
2023-03-06T12:43:40.160Z,99191.42
2023-03-06T12:48:04.353Z,99192.16
2023-03-06T13:00:23.817Z,99186.87
2023-03-06T13:03:29.738Z,99189.68
2023-03-06T13:49:46.497Z,99177.83
2023-03-06T13:54:07.754Z,99174.68
2023-03-06T14:13:45.234Z,99171.17
2023-03-06T14:17:14.562Z,99171.97
2023-03-06T14:28:30.063Z,99167.67
2023-03-06T14:46:47.375Z,99170.38
2023-03-06T14:50:58.770Z,99171.81
2023-03-06T15:27:34.297Z,99175.52
2023-03-06T15:32:03.819Z,99182.46
2023-03-06T16:22:16.821Z,99180.83
2023-03-06T16:30:11.059Z,99185.80
2023-03-06T16:34:06.668Z,99178.48
2023-03-06T16:38:01.024Z,99178.50
2023-03-06T16:41:50.249Z,99178.64
2023-03-06T16:55:19.059Z,99182.27
2023-03-06T17:03:09.055Z,99193.89
2023-03-06T17:11:45.416Z,99208.25
2023-03-06T17:16:05.663Z,99200.34
2023-03-06T17:20:40.415Z,99206.95
2023-03-06T17:24:32.480Z,99212.48
2023-03-06T17:28:18.665Z,99213.28
2023-03-06T17:32:15.281Z,99217.23
2023-03-06T17:36:12.705Z,99221.70
2023-03-06T17:39:46.344Z,99227.34
2023-03-06T17:43:44.776Z,99223.70
2023-03-06T17:47:35.549Z,99222.71
2023-03-06T17:50:40.513Z,99229.45
2023-03-06T17:54:24.617Z,99227.65
2023-03-06T17:58:38.343Z,99229.12
2023-03-06T18:02:25.235Z,99227.73
2023-03-06T18:05:55.047Z,99220.75
2023-03-06T18:09:47.085Z,99224.02
2023-03-06T18:13:39.663Z,99219.62
2023-03-06T18:17:58.446Z,99216.98
2023-03-06T18:22:33.795Z,99219.26
2023-03-06T18:30:19.647Z,99219.84
2023-03-06T18:34:34.517Z,99218.05
2023-03-06T18:43:12.995Z,99220.60
2023-03-06T18:47:28.297Z,99222.86
2023-03-06T19:00:38.197Z,99226.53
2023-03-06T19:17:04.907Z,99231.36
2023-03-06T19:20:52.261Z,99236.28
2023-03-06T19:25:02.724Z,99238.62
2023-03-06T19:29:03.460Z,99239.91
2023-03-06T19:34:03.876Z,99244.74
2023-03-06T19:38:00.545Z,99245.46
2023-03-06T19:42:41.095Z,99248.08
2023-03-06T19:46:58.662Z,99253.84
2023-03-06T19:51:30.335Z,99256.64
2023-03-06T19:55:19.760Z,99254.84
2023-03-06T19:59:00.856Z,99253.81
2023-03-06T20:02:13.312Z,99252.10
2023-03-06T20:06:50.082Z,99257.24
2023-03-06T20:10:56.562Z,99258.13
2023-03-06T20:14:26.918Z,99258.75
2023-03-06T20:18:45.596Z,99260.46
2023-03-06T20:22:36.541Z,99260.97
2023-03-06T20:25:59.563Z,99258.70
2023-03-06T20:30:22.229Z,99257.21
2023-03-06T20:34:42.184Z,99253.80
2023-03-06T20:38:56.026Z,99257.23
2023-03-06T20:42:49.115Z,99256.65
2023-03-06T20:46:02.835Z,99257.61
2023-03-06T20:49:55.441Z,99260.22
2023-03-06T20:53:46.310Z,99260.73
2023-03-06T20:57:36.436Z,99262.16
2023-03-06T21:01:08.020Z,99260.26
2023-03-06T21:04:21.275Z,99257.66
2023-03-06T21:07:40.704Z,99257.85
2023-03-06T21:11:28.050Z,99256.61
2023-03-06T21:14:59.804Z,99254.42
2023-03-06T21:18:49.529Z,99255.34
2023-03-06T21:21:48.050Z,99253.63
2023-03-06T21:25:23.581Z,99257.55
2023-03-06T21:29:57.575Z,99254.95
2023-03-06T21:32:32.054Z,99253.54
2023-03-06T21:35:33.532Z,99253.81
2023-03-06T21:39:02.076Z,99251.77
2023-03-06T21:42:18.113Z,99246.43
2023-03-06T21:45:34.722Z,99246.02
2023-03-06T21:48:27.690Z,99247.79
2023-03-06T21:51:29.242Z,99245.81
2023-03-06T21:54:27.282Z,99243.95
2023-03-06T21:57:43.576Z,99248.36
2023-03-06T22:00:49.948Z,99248.08
2023-03-06T22:04:19.648Z,99254.21
2023-03-06T22:07:52.399Z,99251.45
2023-03-06T22:10:51.247Z,99252.30
2023-03-06T22:14:49.257Z,99247.48
2023-03-06T22:18:21.538Z,99243.41
2023-03-06T22:21:23.865Z,99241.27
2023-03-06T22:24:19.237Z,99238.93
2023-03-06T22:27:27.011Z,99237.65
2023-03-06T22:30:42.032Z,99233.73
2023-03-06T22:33:22.955Z,99234.54
2023-03-06T22:37:08.514Z,99235.20
2023-03-06T22:40:48.711Z,99238.84
2023-03-06T22:44:00.664Z,99236.20
2023-03-06T22:47:38.688Z,99232.60
2023-03-06T22:50:30.035Z,99227.52
2023-03-06T22:54:50.412Z,99227.98
2023-03-06T22:57:25.237Z,99225.92
2023-03-06T23:00:56.033Z,99228.13
2023-03-06T23:04:29.218Z,99227.14
2023-03-06T23:07:45.445Z,99222.82
2023-03-06T23:10:44.754Z,99222.29
2023-03-06T23:13:42.369Z,99216.11
2023-03-06T23:17:21.642Z,99215.54
2023-03-06T23:21:00.666Z,99212.83
2023-03-06T23:24:21.567Z,99216.80
2023-03-06T23:27:19.831Z,99209.59
2023-03-06T23:30:19.950Z,99207.55
2023-03-06T23:34:24.528Z,99206.56
2023-03-06T23:38:13.628Z,99204.48
2023-03-06T23:41:29.033Z,99203.34
2023-03-06T23:44:52.856Z,99203.28
2023-03-06T23:47:54.080Z,99202.70
2023-03-06T23:51:39.498Z,99209.27
2023-03-06T23:56:08.255Z,99203.74
2023-03-06T23:59:13.065Z,99202.06
